M I D A S
Marine Information and Data Acquisition System
Tripno 655 of the Zeeleeuw from 2004-02-25 07:30:40 to 2004-02-25 11:38:24
Back to CruiseResearch ActivitiesStationsMapUnderway DataData graphs

EquipmentUnitsComments
TimeDGPSUTC
LatitudeDGPSDM.mWGS84
LongitudeDGPSDM.mWGS84
SpeedMeteo Stationm/sRelative wind speed
DirectionMeteo StationdegRelative wind direction
TemperatureMeteo Stationdeg CelciusAir temperature
PressureMeteo StationPaAtmospheric pressure
HumidityMeteo Station%Relative humidity
Missing or incorrect values are displayed as -999
Metereological data collected by the RV Zeeleeuw from 2004-02-25 07:30:40 to 2004-02-25 11:38:24
Time Latitude Longitude Speed Direction Temperature Pressure Humidity
2004-02-25 07:31 51°13.608 2°56.057 8.9 205 3.7 100870 70
2004-02-25 07:32 51°13.645 2°55.956 8.8 196 3.7 100870 70
2004-02-25 07:33 51°13.679 2°55.838 11 219 3.7 100880 70
2004-02-25 07:34 51°13.692 2°55.751 5 245 3.6 100870 69
2004-02-25 07:35 51°13.707 2°55.768 7.1 311 3.6 100860 69
2004-02-25 07:36 51°13.705 2°55.751 7.8 7 3.5 100850 69
2004-02-25 07:37 51°13.773 2°55.68 9.4 16 3.6 100850 70
2004-02-25 07:38 51°13.876 2°55.597 9.9 350 3.5 100840 69
2004-02-25 07:39 51°13.992 2°55.519 12.1 4 3.6 100840 71
2004-02-25 07:40 51°14.109 2°55.434 13.6 355 3.6 100830 71
2004-02-25 07:41 51°14.248 2°55.278 15.9 10 3.6 100820 72
2004-02-25 07:42 51°14.374 2°55.042 16 11 3.5 100820 71
2004-02-25 07:43 51°14.404 2°54.752 13.3 40 3.5 100810 71
2004-02-25 07:44 51°14.388 2°54.507 12.7 34 3.6 100810 72
2004-02-25 07:45 51°14.32 2°54.223 15.2 57 3.6 100790 72
2004-02-25 07:46 51°14.205 2°53.896 12.5 52 3.5 100770 72
2004-02-25 07:47 51°14.086 2°53.56 14.3 58 3.5 100770 72
2004-02-25 07:48 51°13.971 2°53.217 14.3 47 3.5 100780 72
2004-02-25 07:49 51°13.858 2°52.873 13.9 46 3.5 100780 71
2004-02-25 07:50 51°13.747 2°52.532 13.2 49 3.5 100780 71
2004-02-25 07:51 51°13.638 2°52.193 12.7 53 3.4 100820 71
2004-02-25 07:52 51°13.527 2°51.852 13 51 3.5 100820 71
2004-02-25 07:53 51°13.415 2°51.508 13.4 41 3.5 100820 71
2004-02-25 07:54 51°13.302 2°51.165 12.2 43 3.5 100830 71
2004-02-25 07:55 51°13.19 2°50.819 13.7 49 3.4 100820 70
2004-02-25 07:56 51°13.072 2°50.476 12.1 52 3.5 100810 71
2004-02-25 07:57 51°12.953 2°50.137 12.6 51 3.4 100830 71
2004-02-25 07:58 51°12.833 2°49.797 13 48 3.6 100830 72
2004-02-25 07:59 51°12.716 2°49.458 13.7 48 3.5 100830 71
2004-02-25 08:00 51°12.596 2°49.119 13.3 45 3.5 100790 71
2004-02-25 08:01 51°12.479 2°48.777 14.4 44 3.5 100790 72
2004-02-25 08:02 51°12.36 2°48.44 12.2 37 3.5 100790 71
2004-02-25 08:03 51°12.242 2°48.103 15.8 41 3.5 100800 70
2004-02-25 08:04 51°12.125 2°47.766 15.8 39 3.5 100790 69
2004-02-25 08:05 51°12.01 2°47.428 14.7 41 3.5 100790 69
2004-02-25 08:06 51°11.893 2°47.089 14.5 41 3.5 100790 70
2004-02-25 08:07 51°11.811 2°46.725 13.7 35 3.5 100790 70
2004-02-25 08:08 51°11.732 2°46.36 14.1 37 3.6 100790 71
2004-02-25 08:09 51°11.654 2°45.991 15.1 27 3.6 100780 71
2004-02-25 08:10 51°11.573 2°45.625 15.8 29 3.6 100800 71
2004-02-25 08:11 51°11.493 2°45.26 13.9 33 3.5 100790 69
2004-02-25 08:12 51°11.414 2°44.894 14.7 35 3.6 100790 69
2004-02-25 08:13 51°11.335 2°44.528 15.5 32 3.6 100790 69
2004-02-25 08:14 51°11.256 2°44.164 15.7 33 3.6 100810 69
2004-02-25 08:15 51°11.177 2°43.799 15.6 32 3.6 100790 70
2004-02-25 08:16 51°11.098 2°43.435 15.8 32 3.6 100800 70
2004-02-25 08:17 51°11.019 2°43.072 15.9 31 3.6 100800 70
2004-02-25 08:18 51°10.942 2°42.709 15.8 40 3.6 100810 71
2004-02-25 08:19 51°10.869 2°42.34 16.5 30 3.5 100810 71
2004-02-25 08:20 51°10.806 2°41.967 16.8 31 3.5 100800 71
2004-02-25 08:21 51°10.743 2°41.597 16.3 29 3.5 100800 70
2004-02-25 08:22 51°10.68 2°41.225 15.8 34 3.5 100810 70
2004-02-25 08:23 51°10.618 2°40.851 16.7 31 3.5 100850 71
2004-02-25 08:24 51°10.554 2°40.479 15.5 33 3.5 100850 71
2004-02-25 08:25 51°10.49 2°40.106 14.2 33 3.5 100850 70
2004-02-25 08:26 51°10.425 2°39.732 15.8 33 3.4 100850 70
2004-02-25 08:27 51°10.363 2°39.359 15.2 33 3.4 100850 70
2004-02-25 08:28 51°10.299 2°38.992 15.5 33 3.4 100820 70
2004-02-25 08:29 51°10.238 2°38.625 15.5 31 3.4 100850 70
2004-02-25 08:30 51°10.174 2°38.26 16.5 39 3.5 100860 71
2004-02-25 08:31 51°10.114 2°37.888 14.9 26 3.4 100810 70
2004-02-25 08:32 51°10.053 2°37.514 16.2 41 3.4 100810 71
2004-02-25 08:33 51°9.991 2°37.142 17.7 34 3.5 100820 72
2004-02-25 08:34 51°9.973 2°36.763 16.7 32 3.4 100820 72
2004-02-25 08:35 51°9.988 2°36.381 16.8 28 3.4 100830 73
2004-02-25 08:36 51°10.027 2°36.012 17.2 11 3.4 100840 73
2004-02-25 08:37 51°10.18 2°35.758 16.6 344 3.3 100840 72
2004-02-25 08:38 51°10.387 2°35.684 17 328 3.4 100820 73
2004-02-25 08:39 51°10.591 2°35.757 15.5 317 3.4 100820 73
2004-02-25 08:40 51°10.78 2°35.899 12.8 314 3.2 100840 72
2004-02-25 08:41 51°10.963 2°36.063 12.1 307 3.2 100840 73
2004-02-25 08:42 51°11.141 2°36.24 11.4 311 3.2 100840 73
2004-02-25 08:43 51°11.318 2°36.413 13.1 308 3.2 100830 73
2004-02-25 08:44 51°11.496 2°36.587 14.2 310 3.2 100830 73
2004-02-25 08:45 51°11.674 2°36.765 14.8 315 3.2 100840 73
2004-02-25 08:46 51°11.852 2°36.94 14.7 308 3.3 100820 73
2004-02-25 08:47 51°12.029 2°37.113 14.2 312 3.3 100830 74
2004-02-25 08:48 51°12.206 2°37.286 15 227 3.3 100820 74
2004-02-25 08:49 51°12.381 2°37.456 13.8 316 3.3 100820 74
2004-02-25 08:50 51°12.555 2°37.628 13.8 44 3.3 100810 74
2004-02-25 08:51 51°12.736 2°37.789 14.4 315 3.3 100800 74
2004-02-25 08:52 51°12.913 2°37.959 13.4 318 3.3 100810 75
2004-02-25 08:53 51°13.088 2°38.129 15.3 310 3.2 100800 75
2004-02-25 08:54 51°13.271 2°38.29 12 317 3.1 100820 75
2004-02-25 08:55 51°13.457 2°38.444 16.2 320 3.2 100810 75
2004-02-25 08:56 51°13.651 2°38.567 15.2 316 3.1 100800 75
2004-02-25 08:57 51°13.853 2°38.662 17 322 3.1 100820 74
2004-02-25 08:58 51°14.047 2°38.622 17.5 4 3.2 100830 75
2004-02-25 08:59 51°14.029 2°38.282 16.5 51 3.1 100830 73
2004-02-25 09:00 51°13.908 2°37.945 15.6 56 3.1 100840 72
2004-02-25 09:01 51°13.803 2°37.589 14.8 52 3.1 100830 72
2004-02-25 09:02 51°13.701 2°37.231 16.3 49 3.2 100830 73
2004-02-25 09:03 51°13.6 2°36.872 16.6 62 3.2 100820 72
2004-02-25 09:04 51°13.494 2°36.52 14.3 46 3.2 100820 72
2004-02-25 09:05 51°13.393 2°36.161 15 53 3.1 100820 71
2004-02-25 09:06 51°13.296 2°35.8 15.8 55 3.1 100850 72
2004-02-25 09:07 51°13.196 2°35.444 16.5 46 2.9 100830 72
2004-02-25 09:08 51°13.099 2°35.086 14.8 55 2.8 100860 73
2004-02-25 09:09 51°13.001 2°34.726 16.2 45 2.7 100850 74
2004-02-25 09:10 51°12.901 2°34.368 14.7 55 2.7 100850 73
2004-02-25 09:11 51°12.801 2°34.008 15.2 52 2.7 100860 72
2004-02-25 09:12 51°12.701 2°33.646 13.8 55 2.7 100860 72
2004-02-25 09:13 51°12.596 2°33.288 15.2 49 2.8 100860 72
2004-02-25 09:14 51°12.494 2°32.929 16.3 52 2.9 100860 72
2004-02-25 09:15 51°12.392 2°32.57 14.7 51 3 100850 73
2004-02-25 09:16 51°12.289 2°32.215 15.1 47 3.1 100850 73
2004-02-25 09:17 51°12.186 2°31.858 13.6 45 3 100860 72
2004-02-25 09:18 51°12.093 2°31.494 15.6 46 3 100850 72
2004-02-25 09:19 51°12.001 2°31.128 16.1 47 3 100860 72
2004-02-25 09:20 51°11.909 2°30.76 15.9 49 3 100860 72
2004-02-25 09:21 51°11.816 2°30.391 16.5 49 3 100860 71
2004-02-25 09:22 51°11.725 2°30.022 13.9 53 2.9 100880 71
2004-02-25 09:23 51°11.632 2°29.652 15.5 38 3.1 100870 72
2004-02-25 09:24 51°11.541 2°29.28 14.4 41 2.9 100860 70
2004-02-25 09:25 51°11.451 2°28.906 14.9 43 3 100860 71
2004-02-25 09:26 51°11.369 2°28.522 15.4 45 3.1 100870 71
2004-02-25 09:27 51°11.288 2°28.134 15.1 39 3 100850 71
2004-02-25 09:28 51°11.208 2°27.742 15.8 39 2.9 100860 72
2004-02-25 09:29 51°11.146 2°27.344 17.2 36 2.9 100870 73
2004-02-25 09:30 51°11.114 2°26.939 17.7 44 2.9 100860 74
2004-02-25 09:31 51°11.111 2°26.534 18.5 34 2.7 100870 75
2004-02-25 09:32 51°11.124 2°26.134 19.3 26 2.6 100860 76
2004-02-25 09:33 51°11.15 2°25.738 18.8 25 2.5 100870 76
2004-02-25 09:34 51°11.23 2°25.369 19.4 11 2.5 100890 75
2004-02-25 09:35 51°11.415 2°25.208 15.8 332 2.4 100880 75
2004-02-25 09:36 51°11.596 2°25.349 11.4 307 2.4 100890 75
2004-02-25 09:37 51°11.749 2°25.567 14.6 317 2.4 100910 75
2004-02-25 09:38 51°11.916 2°25.762 13.4 43 2.3 100880 75
2004-02-25 09:39 51°12.085 2°25.951 14.6 317 2.2 100890 74
2004-02-25 09:40 51°12.252 2°26.133 13 322 2.2 100900 75
2004-02-25 09:41 51°12.422 2°26.308 13.8 312 2.2 100900 75
2004-02-25 09:42 51°12.591 2°26.484 13 313 2.2 100900 75
2004-02-25 09:43 51°12.747 2°26.687 12.5 41 2.2 100900 76
2004-02-25 09:44 51°12.898 2°26.896 13.8 310 2.2 100890 75
2004-02-25 09:45 51°13.053 2°27.105 12 307 2.1 100900 75
2004-02-25 09:46 51°13.209 2°27.313 12.2 319 2.1 100890 75
2004-02-25 09:47 51°13.364 2°27.519 11 323 2.2 100900 74
2004-02-25 09:48 51°13.518 2°27.727 10.4 313 2.1 100890 73
2004-02-25 09:49 51°13.674 2°27.934 11.6 313 2.2 100880 73
2004-02-25 09:50 51°13.836 2°28.143 11 312 2.1 100890 71
2004-02-25 09:51 51°13.993 2°28.354 12.9 310 2.3 100900 71
2004-02-25 09:52 51°14.149 2°28.564 13.1 313 2.4 100900 70
2004-02-25 09:53 51°14.298 2°28.791 15 310 2.5 100880 70
2004-02-25 09:54 51°14.453 2°29.01 14 307 2.6 100880 71
2004-02-25 09:55 51°14.61 2°29.224 11.6 314 2.6 100880 71
2004-02-25 09:56 51°14.764 2°29.436 13.7 315 2.5 100870 70
2004-02-25 09:57 51°14.916 2°29.653 13.9 308 2.5 100880 69
2004-02-25 09:58 51°15.074 2°29.861 12.8 310 2.5 100880 68
2004-02-25 09:59 51°15.231 2°30.071 12 322 2.6 100880 69
2004-02-25 10:00 51°15.386 2°30.283 14.4 308 2.6 100880 67
2004-02-25 10:01 51°15.542 2°30.49 15.5 313 2.6 100880 67
2004-02-25 10:02 51°15.698 2°30.702 14.1 314 2.5 100880 66
2004-02-25 10:03 51°15.854 2°30.911 15.5 317 2.6 100860 67
2004-02-25 10:04 51°16.008 2°31.118 13.5 313 2.6 100870 67
2004-02-25 10:05 51°16.157 2°31.344 12.8 309 2.6 100880 67
2004-02-25 10:06 51°16.301 2°31.576 12.3 227 2.5 100890 65
2004-02-25 10:07 51°16.445 2°31.805 13.7 313 2.5 100880 66
2004-02-25 10:08 51°16.592 2°32.033 12.3 314 2.5 100880 64
2004-02-25 10:09 51°16.737 2°32.266 15.1 313 2.5 100870 64
2004-02-25 10:10 51°16.881 2°32.495 11.4 308 2.4 100870 64
2004-02-25 10:11 51°17.025 2°32.721 13.7 307 2.5 100870 64
2004-02-25 10:12 51°17.177 2°32.941 13.1 300 2.5 100880 64
2004-02-25 10:13 51°17.326 2°33.155 14.5 229 2.6 100870 65
2004-02-25 10:14 51°17.475 2°33.367 12.9 315 2.6 100870 63
2004-02-25 10:15 51°17.62 2°33.572 12.7 312 2.6 100870 63
2004-02-25 10:16 51°17.767 2°33.781 13.4 312 2.6 100860 62
2004-02-25 10:17 51°17.915 2°33.988 12.8 322 2.6 100870 63
2004-02-25 10:18 51°18.063 2°34.196 14.1 307 2.6 100870 64
2004-02-25 10:19 51°18.211 2°34.403 13.1 312 2.6 100850 63
2004-02-25 10:20 51°18.355 2°34.614 14.1 308 2.6 100860 61
2004-02-25 10:21 51°18.5 2°34.825 13.1 231 2.6 100860 66
2004-02-25 10:22 51°18.646 2°35.036 11.5 312 2.6 100870 67
2004-02-25 10:23 51°18.791 2°35.241 13.2 311 2.6 100860 64
2004-02-25 10:24 51°18.937 2°35.452 14.3 309 2.6 100850 61
2004-02-25 10:25 51°19.081 2°35.66 13 44 2.7 100860 63
2004-02-25 10:26 51°19.224 2°35.866 14 309 2.7 100860 63
2004-02-25 10:27 51°19.368 2°36.074 15.5 314 2.7 100870 64
2004-02-25 10:28 51°19.503 2°36.295 12.9 298 2.6 100870 63
2004-02-25 10:29 51°19.602 2°36.563 9.9 278 2.6 100880 66
2004-02-25 10:30 51°19.638 2°36.874 6 261 2.5 100900 65
2004-02-25 10:31 51°19.658 2°37.193 9.9 297 2.5 100890 67
2004-02-25 10:32 51°19.689 2°37.518 8.9 292 2.4 100890 66
2004-02-25 10:33 51°19.722 2°37.84 6.9 296 2.4 100890 65
2004-02-25 10:34 51°19.734 2°38.167 6.4 276 2.4 100900 65
2004-02-25 10:35 51°19.739 2°38.495 6.7 289 2.4 100900 66
2004-02-25 10:36 51°19.724 2°38.826 7 291 2.4 100900 63
2004-02-25 10:37 51°19.704 2°39.156 6.1 280 2.4 100890 63
2004-02-25 10:38 51°19.692 2°39.487 3.8 294 2.4 100900 62
2004-02-25 10:39 51°19.691 2°39.819 6.8 281 2.4 100900 63
2004-02-25 10:40 51°19.69 2°40.149 4.7 295 2.5 100890 64
2004-02-25 10:41 51°19.695 2°40.48 5.3 288 2.5 100900 65
2004-02-25 10:42 51°19.702 2°40.802 6.4 294 2.5 100890 64
2004-02-25 10:43 51°19.735 2°41.123 8.6 279 2.6 100890 65
2004-02-25 10:44 51°19.772 2°41.443 7.3 294 2.6 100890 66
2004-02-25 10:45 51°19.808 2°41.757 9.3 284 2.6 100880 66
2004-02-25 10:46 51°19.842 2°42.069 8.6 292 2.6 100880 66
2004-02-25 10:47 51°19.865 2°42.39 9.2 281 2.5 100900 64
2004-02-25 10:48 51°19.884 2°42.71 7.5 296 2.5 100900 64
2004-02-25 10:49 51°19.904 2°43.032 11 290 2.5 100890 63
2004-02-25 10:50 51°19.904 2°43.363 8.9 285 2.4 100900 63
2004-02-25 10:51 51°19.874 2°43.687 8.6 265 2.5 100880 64
2004-02-25 10:52 51°19.834 2°44.01 7.6 269 2.5 100890 63
2004-02-25 10:53 51°19.789 2°44.336 6.6 272 2.4 100890 60
2004-02-25 10:54 51°19.74 2°44.66 6.1 273 2.4 100900 62
2004-02-25 10:55 51°19.694 2°44.99 5.3 261 2.4 100900 61
2004-02-25 10:56 51°19.651 2°45.319 3.8 255 2.5 100900 64
2004-02-25 10:57 51°19.614 2°45.641 5.1 266 2.5 100880 63
2004-02-25 10:58 51°19.568 2°45.967 4.2 273 2.4 100890 61
2004-02-25 10:59 51°19.52 2°46.293 6.7 259 2.5 100880 64
2004-02-25 11:00 51°19.464 2°46.611 7.1 268 2.5 100890 62
2004-02-25 11:01 51°19.419 2°46.935 3.4 256 2.5 100890 62
2004-02-25 11:02 51°19.371 2°47.263 5.9 264 2.5 100890 63
2004-02-25 11:03 51°19.311 2°47.582 5.9 264 2.6 100890 65
2004-02-25 11:04 51°19.243 2°47.9 3.7 259 2.5 100900 63
2004-02-25 11:05 51°19.172 2°48.216 6.5 269 2.6 100890 64
2004-02-25 11:06 51°19.103 2°48.534 2.9 251 2.6 100890 63
2004-02-25 11:07 51°19.041 2°48.856 6.5 261 2.6 100890 62
2004-02-25 11:08 51°18.972 2°49.177 2.6 237 2.5 100890 62
2004-02-25 11:09 51°18.898 2°49.491 3.5 259 2.5 100890 61
2004-02-25 11:10 51°18.808 2°49.798 3.2 257 2.6 100890 62
2004-02-25 11:11 51°18.708 2°50.098 1.5 205 2.6 100900 62
2004-02-25 11:12 51°18.575 2°50.376 1.5 235 2.6 100890 63
2004-02-25 11:13 51°18.439 2°50.649 3.8 217 2.6 100910 60
2004-02-25 11:14 51°18.306 2°50.927 3.2 219 2.5 100890 58
2004-02-25 11:15 51°18.169 2°51.208 1.2 214 2.6 100890 60
2004-02-25 11:16 51°18.02 2°51.473 1.5 183 2.6 100880 60
2004-02-25 11:17 51°17.857 2°51.723 1.2 129 2.7 100890 61
2004-02-25 11:18 51°17.668 2°51.932 3.3 88 2.9 100880 62
2004-02-25 11:19 51°17.448 2°52.086 4.9 110 2.8 100880 60
2004-02-25 11:20 51°17.218 2°52.223 4.2 108 2.7 100880 58
2004-02-25 11:21 51°16.99 2°52.361 4.4 121 2.7 100880 58
2004-02-25 11:22 51°16.77 2°52.512 4.2 118 2.7 100880 57
2004-02-25 11:23 51°16.552 2°52.674 2.8 108 2.6 100880 57
2004-02-25 11:24 51°16.334 2°52.852 2 100 2.6 100880 58
2004-02-25 11:25 51°16.157 2°52.995 4.9 151 2.7 100900 59
2004-02-25 11:26 51°16.018 2°53.103 5 145 2.6 100900 57
2004-02-25 11:27 51°15.877 2°53.208 6.7 130 2.6 100890 62
2004-02-25 11:28 51°15.668 2°53.339 2.7 117 2.6 100900 59
2004-02-25 11:29 51°15.454 2°53.497 3.6 129 2.5 100900 58
2004-02-25 11:30 51°15.232 2°53.641 3.9 135 2.6 100900 60
2004-02-25 11:31 51°15.065 2°53.855 1.7 196 2.7 100900 60
2004-02-25 11:32 51°14.908 2°54.095 3.1 172 2.8 100900 61
2004-02-25 11:33 51°14.729 2°54.316 2.5 144 2.9 100900 58
2004-02-25 11:34 51°14.552 2°54.556 1.8 207 2.9 100890 58
2004-02-25 11:35 51°14.428 2°54.847 1.9 253 2.9 100890 60
2004-02-25 11:36 51°14.313 2°55.125 5.5 228 2.9 100890 60
2004-02-25 11:37 51°14.202 2°55.355 3.1 167 2.8 100890 60